Time;durP1;ratioP1;P1;durP2;ratioP2;P2;SDS_P1;SDS_P2;PMS_P1;PMS_P2;Temp;Humidity;BMP_temperature;BMP_pressure;BME280_temperature;BME280_humidity;BME280_pressure;Samples;Min_cycle;Max_cycle;Signal;HPM_P1;HPM_P2
2022/12/05 00:01:22;;;;;;;25.47;14.33;;;4.80;99.90;;;;;;4973636;28;20198;-58
2022/12/05 00:03:52;;;;;;;26.27;14.33;;;4.80;99.90;;;;;;4973376;28;20561;-51
2022/12/05 00:06:19;;;;;;;22.50;13.37;;;4.80;99.90;;;;;;4976541;28;20200;-49
2022/12/05 00:08:46;;;;;;;25.63;15.20;;;4.80;99.90;;;;;;4984232;28;20231;-54
2022/12/05 00:11:16;;;;;;;24.53;14.40;;;4.80;99.90;;;;;;4985134;28;20241;-50
2022/12/05 00:13:43;;;;;;;26.27;14.97;;;4.80;99.90;;;;;;4974575;28;20201;-53
2022/12/05 00:16:12;;;;;;;25.47;14.93;;;4.80;99.90;;;;;;4980226;28;20193;-51
2022/12/05 00:18:40;;;;;;;30.10;15.67;;;4.80;99.90;;;;;;4972502;28;20669;-54
2022/12/05 00:21:08;;;;;;;29.00;15.03;;;4.70;99.90;;;;;;4973640;28;20208;-54
2022/12/05 00:23:35;;;;;;;23.53;14.10;;;4.70;99.90;;;;;;4975969;28;20205;-56
2022/12/05 00:26:02;;;;;;;28.87;16.47;;;4.70;99.90;;;;;;4983055;28;20189;-53
2022/12/05 00:28:31;;;;;;;26.97;15.03;;;4.70;99.90;;;;;;4986417;28;20252;-49
2022/12/05 00:31:02;;;;;;;26.77;14.00;;;4.70;99.90;;;;;;4965920;28;20213;-53
2022/12/05 00:33:28;;;;;;;24.33;15.90;;;4.70;99.90;;;;;;4979356;28;20692;-55
2022/12/05 00:36:01;;;;;;;27.33;15.97;;;4.70;99.90;;;;;;4966529;28;20205;-53
2022/12/05 00:38:28;;;;;;;27.33;15.57;;;4.70;99.90;;;;;;4986399;28;21085;-50
2022/12/05 00:40:55;;;;;;;26.27;14.17;;;4.70;99.90;;;;;;4981568;28;20193;-51
2022/12/05 00:43:21;;;;;;;26.20;14.47;;;4.70;99.90;;;;;;4986005;28;20680;-51
2022/12/05 00:45:48;;;;;;;25.50;15.03;;;4.70;99.90;;;;;;4966671;28;20224;-55
2022/12/05 00:48:15;;;;;;;27.80;14.77;;;4.70;99.90;;;;;;4980521;28;20201;-51
2022/12/05 00:50:42;;;;;;;23.50;14.30;;;4.70;99.90;;;;;;4970921;28;20248;-54
2022/12/05 00:53:10;;;;;;;21.93;13.33;;;4.70;99.90;;;;;;4981487;28;20194;-51
2022/12/05 00:55:37;;;;;;;24.30;14.37;;;4.70;99.90;;;;;;4984464;28;20706;-54
2022/12/05 00:58:04;;;;;;;23.93;13.60;;;4.70;99.90;;;;;;4983463;28;20221;-49
2022/12/05 01:00:31;;;;;;;25.83;14.03;;;4.70;99.90;;;;;;4970032;28;20218;-52
2022/12/05 01:02:58;;;;;;;24.00;15.07;;;4.80;99.90;;;;;;4982231;28;20235;-53
2022/12/05 01:05:25;;;;;;;20.00;13.00;;;4.80;99.90;;;;;;4974338;28;20197;-53
2022/12/05 01:07:52;;;;;;;18.63;13.23;;;4.80;99.90;;;;;;4975802;28;20201;-48
2022/12/05 01:10:20;;;;;;;22.37;13.57;;;4.80;99.90;;;;;;4985579;28;20272;-51
2022/12/05 01:12:47;;;;;;;25.43;13.77;;;4.80;99.90;;;;;;4982321;28;20197;-55
2022/12/05 01:15:13;;;;;;;22.87;14.40;;;4.80;99.90;;;;;;4985712;28;20216;-55
2022/12/05 01:17:40;;;;;;;23.23;13.93;;;4.80;99.90;;;;;;4966382;28;20210;-54
2022/12/05 01:20:08;;;;;;;20.00;12.70;;;4.80;99.90;;;;;;4977456;28;20314;-55
2022/12/05 01:22:35;;;;;;;20.97;13.40;;;4.80;99.90;;;;;;4974385;28;20205;-55
2022/12/05 01:25:02;;;;;;;20.47;13.03;;;4.80;99.90;;;;;;4982597;28;20189;-55
2022/12/05 01:27:30;;;;;;;19.13;12.23;;;4.80;99.90;;;;;;4985431;28;20668;-54
2022/12/05 01:29:57;;;;;;;18.37;12.37;;;4.80;99.90;;;;;;4981552;28;20220;-52
2022/12/05 01:32:24;;;;;;;18.43;12.27;;;4.90;99.90;;;;;;4969557;28;20220;-55
2022/12/05 01:34:52;;;;;;;15.03;11.23;;;4.80;99.90;;;;;;4981346;28;20228;-54
2022/12/05 01:37:18;;;;;;;17.80;12.47;;;4.90;99.90;;;;;;4978846;28;20197;-53
2022/12/05 01:39:45;;;;;;;18.60;12.53;;;4.90;99.90;;;;;;4977245;28;20240;-54
2022/12/05 01:42:12;;;;;;;19.83;12.47;;;4.90;99.90;;;;;;4978466;28;20204;-53
2022/12/05 01:45:12;;;;;;;19.37;12.97;;;4.90;99.90;;;;;;4982989;28;20229;-55
2022/12/05 01:47:39;;;;;;;19.53;11.80;;;4.90;99.90;;;;;;4960758;28;20559;-53
2022/12/05 01:50:07;;;;;;;20.40;12.33;;;4.90;99.90;;;;;;4976583;28;20216;-54
2022/12/05 01:52:34;;;;;;;20.43;13.80;;;4.90;99.90;;;;;;4974159;28;20209;-56
2022/12/05 01:55:08;;;;;;;19.33;13.67;;;4.90;99.90;;;;;;4977291;28;20215;-49
2022/12/05 01:57:36;;;;;;;21.10;13.07;;;4.90;99.90;;;;;;4978835;28;20674;-54
2022/12/05 02:00:11;;;;;;;19.73;12.90;;;4.90;99.90;;;;;;4982454;28;20220;-54
2022/12/05 02:02:43;;;;;;;21.63;13.50;;;4.90;99.90;;;;;;4973454;28;20247;-53
2022/12/05 02:05:16;;;;;;;22.23;13.47;;;4.90;99.90;;;;;;4980415;28;20229;-54
2022/12/05 02:07:45;;;;;;;23.03;12.63;;;4.90;99.90;;;;;;4978580;28;20201;-54
2022/12/05 02:10:12;;;;;;;19.07;12.80;;;5.00;99.90;;;;;;4977079;28;20248;-54
2022/12/05 02:12:40;;;;;;;22.80;13.60;;;5.00;99.90;;;;;;4982975;28;20216;-53
2022/12/05 02:15:34;;;;;;;23.33;14.53;;;5.00;99.90;;;;;;4983398;28;20924;-49
2022/12/05 02:18:15;;;;;;;23.83;14.30;;;5.00;99.90;;;;;;4964824;28;21048;-53
2022/12/05 02:20:54;;;;;;;25.60;14.33;;;5.00;99.90;;;;;;4981832;28;20213;-56
2022/12/05 02:23:59;;;;;;;25.80;13.67;;;5.00;99.90;;;;;;4977453;28;20197;-52
2022/12/05 02:26:46;;;;;;;23.47;13.77;;;5.00;99.90;;;;;;4948545;28;20690;-53
2022/12/05 02:29:33;;;;;;;23.13;14.37;;;5.00;99.90;;;;;;4983952;28;20225;-55
2022/12/05 02:32:07;;;;;;;23.00;13.53;;;5.00;99.90;;;;;;4980596;28;20221;-54
2022/12/05 02:34:43;;;;;;;22.53;13.80;;;5.00;99.90;;;;;;4968091;28;20283;-56
2022/12/05 02:37:14;;;;;;;28.20;13.97;;;5.00;99.90;;;;;;4980152;28;20287;-55
2022/12/05 02:39:46;;;;;;;26.50;15.13;;;5.00;99.90;;;;;;4973549;28;20228;-54
2022/12/05 02:42:18;;;;;;;29.63;15.40;;;5.00;99.90;;;;;;4982167;28;20634;-55
2022/12/05 02:44:50;;;;;;;27.40;16.20;;;5.00;99.90;;;;;;4981443;28;20568;-53
2022/12/05 02:47:22;;;;;;;22.70;13.67;;;5.00;99.90;;;;;;4984026;28;20208;-54
2022/12/05 02:49:51;;;;;;;25.37;14.30;;;5.10;99.90;;;;;;4966531;28;20224;-54
2022/12/05 02:52:19;;;;;;;25.70;14.40;;;5.00;99.90;;;;;;4983585;28;20730;-55
2022/12/05 02:54:49;;;;;;;27.10;15.03;;;5.10;99.90;;;;;;4974679;28;20205;-55
2022/12/05 02:57:18;;;;;;;23.03;13.77;;;5.00;99.90;;;;;;4978075;28;20209;-55
2022/12/05 02:59:45;;;;;;;24.73;14.47;;;5.10;99.90;;;;;;4981727;28;20693;-54
2022/12/05 03:02:24;;;;;;;22.90;14.07;;;5.10;99.90;;;;;;4983061;28;20207;-55
2022/12/05 03:04:51;;;;;;;25.77;13.87;;;5.10;99.90;;;;;;4980212;28;20216;-56
2022/12/05 03:07:21;;;;;;;25.40;14.53;;;5.10;99.90;;;;;;4968313;28;20205;-55
2022/12/05 03:09:54;;;;;;;23.07;13.63;;;5.10;99.90;;;;;;4980621;28;20231;-51
2022/12/05 03:12:25;;;;;;;24.33;14.90;;;5.10;99.90;;;;;;4970659;28;20209;-56
2022/12/05 03:14:55;;;;;;;24.77;14.00;;;5.10;99.90;;;;;;4980079;28;20205;-54
2022/12/05 03:17:29;;;;;;;27.13;14.40;;;5.10;99.90;;;;;;4983841;28;20209;-51
2022/12/05 03:19:59;;;;;;;26.57;15.03;;;5.10;99.90;;;;;;4979974;28;20230;-54
2022/12/05 03:22:32;;;;;;;23.77;15.03;;;5.10;99.90;;;;;;4967464;28;20224;-53
2022/12/05 03:25:01;;;;;;;29.83;15.10;;;5.10;99.90;;;;;;4980154;28;20193;-54
2022/12/05 03:27:38;;;;;;;31.10;15.13;;;5.10;99.90;;;;;;4976864;28;20209;-48
2022/12/05 03:30:08;;;;;;;24.33;14.40;;;5.10;99.90;;;;;;4978811;28;20300;-53
2022/12/05 03:32:40;;;;;;;24.57;14.87;;;5.10;99.90;;;;;;4986624;28;20213;-53
2022/12/05 03:35:12;;;;;;;25.13;14.50;;;5.20;99.90;;;;;;4985696;28;20193;-53
2022/12/05 03:37:46;;;;;;;24.20;14.73;;;5.20;99.90;;;;;;4979133;28;20593;-53
2022/12/05 03:40:26;;;;;;;25.03;14.00;;;5.20;99.90;;;;;;4984671;28;20233;-55
2022/12/05 03:42:58;;;;;;;24.13;14.03;;;5.20;99.90;;;;;;4976358;28;20308;-52
2022/12/05 03:45:31;;;;;;;26.53;14.53;;;5.20;99.90;;;;;;4982040;28;20292;-52
2022/12/05 03:48:08;;;;;;;31.33;16.53;;;5.20;99.90;;;;;;4977122;28;21005;-56
2022/12/05 03:50:37;;;;;;;26.17;16.00;;;5.20;99.90;;;;;;4981625;28;20229;-54
2022/12/05 03:53:08;;;;;;;28.67;15.63;;;5.20;99.90;;;;;;4979471;28;20294;-50
2022/12/05 03:55:38;;;;;;;25.93;14.97;;;5.20;99.90;;;;;;4968646;28;20224;-54
2022/12/05 03:58:08;;;;;;;28.13;14.83;;;5.20;99.90;;;;;;4980770;28;20205;-49
2022/12/05 04:00:39;;;;;;;26.53;15.97;;;5.20;99.90;;;;;;4981016;28;20232;-56
2022/12/05 04:03:11;;;;;;;28.10;15.90;;;5.20;99.90;;;;;;4984949;28;20197;-49
2022/12/05 04:05:43;;;;;;;25.70;15.53;;;5.20;99.90;;;;;;4985830;28;20228;-55
2022/12/05 04:08:16;;;;;;;31.80;16.17;;;5.30;99.90;;;;;;4985998;28;20280;-52
2022/12/05 04:10:50;;;;;;;28.70;15.93;;;5.20;99.90;;;;;;4967527;28;20922;-52
2022/12/05 04:13:22;;;;;;;34.20;16.87;;;5.20;99.90;;;;;;4979386;28;20299;-51
2022/12/05 04:18:45;;;;;;;32.40;17.27;;;5.20;99.90;;;;;;4980432;28;20201;-56
2022/12/05 04:26:50;;;;;;;32.53;17.80;;;5.20;99.90;;;;;;4968232;28;20212;-54
2022/12/05 04:29:25;;;;;;;33.63;17.57;;;5.20;99.90;;;;;;4980165;28;20231;-48
2022/12/05 04:31:57;;;;;;;35.23;17.80;;;5.20;99.90;;;;;;4977185;28;20224;-55
2022/12/05 04:34:28;;;;;;;33.67;17.50;;;5.20;99.90;;;;;;4988221;28;20213;-56
2022/12/05 04:36:58;;;;;;;35.27;18.50;;;5.30;99.90;;;;;;4982999;28;20194;-54
2022/12/05 04:39:30;;;;;;;35.63;17.67;;;5.20;99.90;;;;;;4986435;28;20217;-53
2022/12/05 04:42:01;;;;;;;32.70;18.47;;;5.20;99.90;;;;;;4965374;28;20982;-54
2022/12/05 04:44:31;;;;;;;35.30;19.00;;;5.20;99.90;;;;;;4975053;28;20197;-51
2022/12/05 04:47:02;;;;;;;34.17;18.73;;;5.20;99.90;;;;;;4971432;28;20219;-52
2022/12/05 04:49:34;;;;;;;34.87;17.63;;;5.20;99.90;;;;;;4985936;28;20340;-50
2022/12/05 04:52:05;;;;;;;36.07;16.80;;;5.20;99.90;;;;;;4982319;28;20244;-53
2022/12/05 04:54:37;;;;;;;37.00;18.20;;;5.20;99.90;;;;;;4986464;28;20208;-53
2022/12/05 04:57:08;;;;;;;33.87;17.27;;;5.20;99.90;;;;;;4966589;28;20213;-52
2022/12/05 04:59:36;;;;;;;37.37;18.17;;;5.20;99.90;;;;;;4984043;28;20223;-57
2022/12/05 05:02:07;;;;;;;35.13;18.67;;;5.20;99.90;;;;;;4977717;28;20213;-53
2022/12/05 05:04:39;;;;;;;41.73;18.97;;;5.20;99.90;;;;;;4979836;28;20214;-56
2022/12/05 05:07:07;;;;;;;36.37;17.83;;;5.20;99.90;;;;;;4984209;28;20338;-53
2022/12/05 05:09:35;;;;;;;42.37;18.53;;;5.20;99.90;;;;;;4985218;28;20648;-56
2022/12/05 05:12:02;;;;;;;36.00;18.20;;;5.20;99.90;;;;;;4982738;28;20652;-53
2022/12/05 05:14:29;;;;;;;38.90;20.27;;;5.20;99.90;;;;;;4969911;28;20220;-53
2022/12/05 05:16:56;;;;;;;33.70;17.90;;;5.20;99.90;;;;;;4975224;28;20208;-53
2022/12/05 05:19:24;;;;;;;37.80;18.53;;;5.20;99.90;;;;;;4979693;28;20713;-49
2022/12/05 05:21:52;;;;;;;37.13;17.87;;;5.20;99.90;;;;;;4973579;28;20202;-52
2022/12/05 05:24:22;;;;;;;35.83;18.23;;;5.20;99.90;;;;;;4983257;28;20624;-50
2022/12/05 05:26:49;;;;;;;36.80;17.77;;;5.20;99.90;;;;;;4981539;28;20632;-50
2022/12/05 05:29:16;;;;;;;34.67;17.30;;;5.20;99.90;;;;;;4968794;28;20228;-49
2022/12/05 05:31:45;;;;;;;31.40;17.27;;;5.20;99.90;;;;;;4966779;28;20283;-51
2022/12/05 05:34:14;;;;;;;33.43;16.93;;;5.20;99.90;;;;;;4985081;28;20201;-56
2022/12/05 05:36:42;;;;;;;35.63;18.50;;;5.20;99.90;;;;;;4978976;28;20280;-49
2022/12/05 05:39:14;;;;;;;35.50;18.73;;;5.20;99.90;;;;;;4981237;28;20252;-54
2022/12/05 05:41:42;;;;;;;35.07;17.40;;;5.20;99.90;;;;;;4983416;28;20240;-50
2022/12/05 05:44:09;;;;;;;35.47;18.43;;;5.20;99.90;;;;;;4985244;28;20205;-56
2022/12/05 05:46:36;;;;;;;38.43;18.70;;;5.20;99.90;;;;;;4961524;28;20402;-52
2022/12/05 05:49:03;;;;;;;32.77;18.43;;;5.10;99.90;;;;;;4984822;28;20221;-50
2022/12/05 05:51:31;;;;;;;43.03;19.40;;;5.10;99.90;;;;;;4973513;28;20197;-51
2022/12/05 05:53:59;;;;;;;37.33;18.93;;;5.10;99.90;;;;;;4979164;28;20204;-49
2022/12/05 05:56:28;;;;;;;37.63;18.13;;;5.10;99.90;;;;;;4978781;28;20198;-56
2022/12/05 05:58:56;;;;;;;46.90;20.83;;;5.00;99.90;;;;;;4983716;28;20229;-53
2022/12/05 06:01:22;;;;;;;40.47;20.03;;;5.00;99.90;;;;;;4968334;28;20217;-54
2022/12/05 06:03:50;;;;;;;39.57;20.70;;;5.00;99.90;;;;;;4976395;28;20288;-54
2022/12/05 06:06:17;;;;;;;43.70;20.03;;;5.00;99.90;;;;;;4979232;28;20203;-55
2022/12/05 06:08:45;;;;;;;39.87;20.57;;;5.00;99.90;;;;;;4980341;28;20210;-49
2022/12/05 06:11:15;;;;;;;44.50;19.70;;;5.00;99.90;;;;;;4978167;28;20206;-57
2022/12/05 06:13:43;;;;;;;47.53;21.07;;;5.00;99.90;;;;;;4976540;28;20275;-50
2022/12/05 06:16:12;;;;;;;45.83;20.07;;;5.00;99.90;;;;;;4969753;28;20619;-56
2022/12/05 06:18:41;;;;;;;42.07;20.83;;;4.90;99.90;;;;;;4973017;28;20255;-51
2022/12/05 06:21:08;;;;;;;45.07;19.27;;;4.90;99.90;;;;;;4980018;28;20202;-55
2022/12/05 06:23:36;;;;;;;48.83;20.20;;;4.90;99.90;;;;;;4977900;28;20181;-50
2022/12/05 06:26:04;;;;;;;46.00;20.50;;;4.90;99.90;;;;;;4981279;28;20626;-53
2022/12/05 06:28:32;;;;;;;44.57;19.30;;;4.90;99.90;;;;;;4980221;28;20205;-50
2022/12/05 06:31:06;;;;;;;46.50;18.47;;;4.90;99.90;;;;;;4990347;28;20304;-50
2022/12/05 06:33:33;;;;;;;41.00;19.13;;;4.90;99.90;;;;;;4956526;28;20217;-51
2022/12/05 06:36:05;;;;;;;44.90;19.47;;;4.90;99.90;;;;;;4977785;28;20301;-48
2022/12/05 06:38:32;;;;;;;44.20;19.87;;;4.90;99.90;;;;;;4980280;28;20827;-50
2022/12/05 06:41:00;;;;;;;44.33;20.50;;;4.80;99.90;;;;;;4975890;28;20863;-50
2022/12/05 06:43:26;;;;;;;43.37;19.70;;;4.80;99.90;;;;;;4972929;28;20206;-55
2022/12/05 06:45:54;;;;;;;45.93;20.40;;;4.80;99.90;;;;;;4983944;28;20197;-52
2022/12/05 06:48:22;;;;;;;48.03;20.40;;;4.80;99.90;;;;;;4968392;28;20205;-56
2022/12/05 06:50:50;;;;;;;45.87;20.00;;;4.80;99.90;;;;;;4974184;28;20287;-50
2022/12/05 06:53:18;;;;;;;42.07;19.63;;;4.80;99.90;;;;;;4975949;28;20213;-56
2022/12/05 06:55:54;;;;;;;43.57;19.47;;;4.70;99.90;;;;;;4978362;28;20202;-53
2022/12/05 06:58:21;;;;;;;41.87;19.47;;;4.70;99.90;;;;;;4982393;28;20204;-55
2022/12/05 07:03:34;;;;;;;43.63;19.63;;;4.60;99.90;;;;;;4964142;28;21186;-50
2022/12/05 07:06:01;;;;;;;42.40;19.23;;;4.60;99.90;;;;;;4980692;28;20269;-51
2022/12/05 07:08:28;;;;;;;43.83;19.53;;;4.70;99.90;;;;;;4974762;28;20220;-57
2022/12/05 07:10:54;;;;;;;44.10;18.57;;;4.60;99.90;;;;;;4988497;28;20679;-52
2022/12/05 07:13:22;;;;;;;46.30;20.10;;;4.70;99.90;;;;;;4974529;28;20217;-54
2022/12/05 07:15:49;;;;;;;44.00;19.20;;;4.70;99.90;;;;;;4981799;28;20197;-49
2022/12/05 07:18:17;;;;;;;45.93;19.23;;;4.70;99.90;;;;;;4982269;28;20615;-56
2022/12/05 07:20:45;;;;;;;54.90;20.77;;;4.70;99.90;;;;;;4957727;28;20231;-53
2022/12/05 07:23:12;;;;;;;45.67;20.30;;;4.60;99.90;;;;;;4977131;28;20201;-55
2022/12/05 07:25:39;;;;;;;50.27;19.77;;;4.60;99.90;;;;;;4981068;28;20192;-53
2022/12/05 07:28:07;;;;;;;51.10;20.90;;;4.60;99.90;;;;;;4978494;28;20544;-53
2022/12/05 07:30:34;;;;;;;46.67;19.83;;;4.60;99.90;;;;;;4979980;28;20220;-50
2022/12/05 07:33:04;;;;;;;51.37;20.07;;;4.60;99.90;;;;;;4981633;28;20217;-50
2022/12/05 07:35:31;;;;;;;40.77;19.70;;;4.50;99.90;;;;;;4963737;28;20237;-50
2022/12/05 07:38:03;;;;;;;42.43;19.10;;;4.50;99.90;;;;;;4972653;28;20268;-49
2022/12/05 07:40:31;;;;;;;44.73;19.23;;;4.50;99.90;;;;;;4973579;28;20988;-55
2022/12/05 07:42:57;;;;;;;43.53;19.37;;;4.40;99.90;;;;;;4971186;28;20202;-51
2022/12/05 07:45:24;;;;;;;46.13;18.27;;;4.40;99.90;;;;;;4978064;28;20202;-56
2022/12/05 07:47:51;;;;;;;42.80;19.30;;;4.40;99.90;;;;;;4977366;28;20194;-52
2022/12/05 07:50:18;;;;;;;36.63;18.10;;;4.40;99.90;;;;;;4956594;28;20232;-55
2022/12/05 07:52:45;;;;;;;44.87;19.00;;;4.30;99.90;;;;;;4970415;28;20362;-52
2022/12/05 07:55:13;;;;;;;38.73;19.00;;;4.30;99.90;;;;;;4973854;28;20272;-55
2022/12/05 07:57:39;;;;;;;43.17;19.23;;;4.30;99.90;;;;;;4969696;28;20200;-53
2022/12/05 08:00:08;;;;;;;44.17;19.03;;;4.30;99.90;;;;;;4974863;28;20228;-55
2022/12/05 08:02:39;;;;;;;46.97;18.87;;;4.30;99.90;;;;;;4979173;28;20880;-53
2022/12/05 08:05:06;;;;;;;44.07;19.13;;;4.30;99.90;;;;;;4971215;28;20217;-50
2022/12/05 08:07:33;;;;;;;41.93;18.33;;;4.30;99.90;;;;;;4952902;28;20213;-46
2022/12/05 08:09:59;;;;;;;42.87;19.27;;;4.30;99.90;;;;;;4967328;28;20237;-57
2022/12/05 08:12:27;;;;;;;38.87;18.60;;;4.30;99.90;;;;;;4978572;28;20221;-56
2022/12/05 08:14:54;;;;;;;42.60;17.83;;;4.30;99.90;;;;;;4963045;28;20961;-55
2022/12/05 08:17:21;;;;;;;46.67;19.87;;;4.30;99.90;;;;;;4979773;28;20764;-56
2022/12/05 08:19:47;;;;;;;38.67;18.13;;;4.30;99.90;;;;;;4978465;28;20232;-52
2022/12/05 08:22:14;;;;;;;46.90;18.47;;;4.30;99.90;;;;;;4958600;28;20875;-56
2022/12/05 08:24:42;;;;;;;36.20;17.80;;;4.30;99.90;;;;;;4979474;28;20201;-53
2022/12/05 08:27:08;;;;;;;43.23;17.87;;;4.30;99.90;;;;;;4974685;28;20295;-52
2022/12/05 08:29:36;;;;;;;42.80;17.67;;;4.30;99.90;;;;;;4981937;28;20288;-52
2022/12/05 08:32:03;;;;;;;31.63;17.40;;;4.30;99.90;;;;;;4979394;28;20240;-56
2022/12/05 08:34:30;;;;;;;47.80;17.60;;;4.30;99.90;;;;;;4974673;28;20967;-52
2022/12/05 08:36:57;;;;;;;35.20;17.87;;;4.30;99.90;;;;;;4972304;28;20681;-53
2022/12/05 08:39:25;;;;;;;39.50;18.67;;;4.30;99.90;;;;;;4965978;28;20221;-51
2022/12/05 08:41:51;;;;;;;34.37;16.13;;;4.30;99.90;;;;;;4976420;28;20213;-52
2022/12/05 08:44:18;;;;;;;34.07;18.03;;;4.30;99.90;;;;;;4985544;28;20193;-53
2022/12/05 08:46:48;;;;;;;35.27;16.40;;;4.40;99.90;;;;;;4984908;28;20204;-50
2022/12/05 08:49:15;;;;;;;38.90;17.40;;;4.30;99.90;;;;;;4975951;28;20235;-54
2022/12/05 08:51:42;;;;;;;35.70;16.50;;;4.30;99.90;;;;;;4974558;28;20205;-53
2022/12/05 08:54:10;;;;;;;41.17;16.97;;;4.30;99.90;;;;;;4959789;28;20224;-55
2022/12/05 08:56:37;;;;;;;46.33;16.87;;;4.30;99.90;;;;;;4975764;28;20230;-56
2022/12/05 08:59:04;;;;;;;41.27;17.20;;;4.20;99.90;;;;;;4977303;28;20221;-52
2022/12/05 09:01:32;;;;;;;38.10;16.97;;;4.30;99.90;;;;;;4983930;28;20292;-53
2022/12/05 09:04:01;;;;;;;40.03;16.80;;;4.20;99.90;;;;;;4982045;28;20205;-56
2022/12/05 09:06:29;;;;;;;38.67;16.77;;;4.20;99.90;;;;;;4973624;28;20597;-56
2022/12/05 09:08:57;;;;;;;37.10;15.97;;;4.30;99.90;;;;;;4968108;28;20308;-55
2022/12/05 09:11:27;;;;;;;41.03;18.50;;;4.30;99.90;;;;;;4982288;28;20452;-56
2022/12/05 09:13:56;;;;;;;45.20;19.80;;;4.30;99.90;;;;;;4978222;28;20227;-53
2022/12/05 09:16:28;;;;;;;40.37;17.70;;;4.30;99.90;;;;;;4982089;28;20189;-54
2022/12/05 09:18:55;;;;;;;42.87;18.33;;;4.20;99.90;;;;;;4979395;28;20312;-51
2022/12/05 09:21:25;;;;;;;43.57;18.63;;;4.20;99.90;;;;;;4975612;28;20212;-56
2022/12/05 09:23:53;;;;;;;39.97;18.43;;;4.20;99.90;;;;;;4959557;28;20213;-52
2022/12/05 09:26:22;;;;;;;43.70;19.00;;;4.20;99.90;;;;;;4986659;28;20696;-56
2022/12/05 09:28:50;;;;;;;38.93;17.97;;;4.20;99.90;;;;;;4974142;28;20217;-55
2022/12/05 09:31:19;;;;;;;44.90;19.70;;;4.20;99.90;;;;;;4984176;28;20264;-55
2022/12/05 09:33:47;;;;;;;42.33;19.27;;;4.10;99.90;;;;;;4974878;28;20232;-57
2022/12/05 09:36:17;;;;;;;46.77;20.20;;;4.10;99.90;;;;;;4977180;28;20264;-56
2022/12/05 09:38:46;;;;;;;43.57;18.90;;;4.10;99.90;;;;;;4978239;28;20209;-51
2022/12/05 09:44:20;;;;;;;51.97;19.47;;;4.10;99.90;;;;;;4972118;28;20200;-55
2022/12/05 09:46:54;;;;;;;56.27;19.63;;;4.10;99.90;;;;;;4982107;28;20200;-55
2022/12/05 09:49:23;;;;;;;45.30;19.07;;;4.00;99.90;;;;;;4974908;28;20228;-52
2022/12/05 09:51:51;;;;;;;48.00;18.43;;;4.00;99.90;;;;;;4977710;28;20209;-56
2022/12/05 09:54:20;;;;;;;46.23;18.83;;;4.00;99.90;;;;;;4973311;28;20214;-56
2022/12/05 09:56:50;;;;;;;44.47;19.97;;;4.00;99.90;;;;;;4967647;28;20211;-51
2022/12/05 09:59:19;;;;;;;42.40;17.60;;;4.00;99.90;;;;;;4973799;28;20225;-53
2022/12/05 10:01:53;;;;;;;40.03;18.47;;;4.00;99.90;;;;;;4985198;28;20204;-57
2022/12/05 10:04:32;;;;;;;43.17;18.13;;;4.00;99.90;;;;;;4973542;28;20315;-55
2022/12/05 10:07:08;;;;;;;48.83;19.23;;;4.00;99.90;;;;;;4981268;28;20259;-53
2022/12/05 10:09:54;;;;;;;46.10;18.20;;;4.00;99.90;;;;;;4974693;28;20700;-49
2022/12/05 10:12:38;;;;;;;44.77;18.10;;;4.00;99.90;;;;;;4967685;28;20204;-51
2022/12/05 10:15:14;;;;;;;49.93;17.63;;;4.00;99.90;;;;;;4976909;28;20220;-51
2022/12/05 10:17:46;;;;;;;36.67;17.10;;;4.10;99.90;;;;;;4970742;28;20267;-54
2022/12/05 10:20:17;;;;;;;37.03;16.73;;;4.00;99.90;;;;;;4972006;28;20833;-48
2022/12/05 10:22:48;;;;;;;36.17;16.83;;;4.10;99.90;;;;;;4971836;28;20205;-55
2022/12/05 10:25:19;;;;;;;39.17;16.37;;;4.00;99.90;;;;;;4963882;28;20641;-49
2022/12/05 10:27:50;;;;;;;36.00;15.37;;;4.00;99.90;;;;;;4963759;28;20216;-52
2022/12/05 10:30:19;;;;;;;36.07;15.80;;;4.00;99.90;;;;;;4970440;28;20225;-54
2022/12/05 10:32:52;;;;;;;42.80;15.03;;;4.00;99.90;;;;;;4986107;28;20224;-50
2022/12/05 10:35:21;;;;;;;38.77;16.37;;;4.00;99.90;;;;;;4984144;28;20193;-51
2022/12/05 10:37:51;;;;;;;39.37;16.63;;;3.90;99.90;;;;;;4974339;28;20198;-48
2022/12/05 10:40:20;;;;;;;38.23;15.90;;;4.00;99.90;;;;;;4977024;28;20217;-51
2022/12/05 10:42:48;;;;;;;36.53;14.10;;;4.00;99.90;;;;;;4957364;28;20209;-50
2022/12/05 10:45:18;;;;;;;45.30;17.00;;;3.90;99.90;;;;;;4965868;28;20230;-55
2022/12/05 10:47:46;;;;;;;40.27;16.90;;;4.00;99.90;;;;;;4983611;28;20231;-51
2022/12/05 10:50:33;;;;;;;43.10;16.47;;;4.00;99.90;;;;;;4975813;28;20224;-51
2022/12/05 10:53:02;;;;;;;35.63;16.53;;;4.00;99.90;;;;;;4977773;28;20201;-53
2022/12/05 10:55:35;;;;;;;41.27;16.30;;;3.90;99.90;;;;;;4976744;28;20197;-51
2022/12/05 10:58:11;;;;;;;46.67;18.90;;;3.90;99.90;;;;;;4959773;28;20571;-56
2022/12/05 11:00:43;;;;;;;42.77;18.27;;;3.90;99.90;;;;;;4984303;28;20272;-54
2022/12/05 11:03:24;;;;;;;40.47;17.83;;;3.90;99.90;;;;;;4976779;28;20654;-56
2022/12/05 11:05:52;;;;;;;42.87;16.47;;;3.90;99.90;;;;;;4973919;28;20197;-53
2022/12/05 11:08:24;;;;;;;42.23;17.43;;;4.00;99.90;;;;;;4978352;28;20546;-53
2022/12/05 11:11:02;;;;;;;42.27;18.00;;;4.00;99.90;;;;;;4975360;28;20217;-49
2022/12/05 11:13:29;;;;;;;41.17;16.10;;;4.00;99.90;;;;;;4957956;28;20223;-54
2022/12/05 11:15:56;;;;;;;41.30;17.10;;;4.00;99.90;;;;;;4982430;28;20197;-49
2022/12/05 11:18:29;;;;;;;43.67;18.37;;;4.00;99.90;;;;;;4976648;28;20209;-54
2022/12/05 11:21:07;;;;;;;39.07;17.93;;;4.00;99.90;;;;;;4977269;28;20215;-51
2022/12/05 11:23:34;;;;;;;36.90;16.47;;;4.00;99.90;;;;;;4973714;28;20600;-55
2022/12/05 11:26:02;;;;;;;36.27;15.77;;;4.00;99.90;;;;;;4978379;28;20201;-50
2022/12/05 11:28:33;;;;;;;37.17;15.67;;;4.00;99.90;;;;;;4961066;28;20304;-56
2022/12/05 11:31:02;;;;;;;35.43;16.40;;;3.90;99.90;;;;;;4981889;28;20681;-49
2022/12/05 11:33:30;;;;;;;39.27;16.43;;;3.90;99.90;;;;;;4974988;28;20681;-56
2022/12/05 11:36:03;;;;;;;37.40;16.13;;;3.90;99.90;;;;;;4972215;28;20280;-56
2022/12/05 11:38:33;;;;;;;42.73;16.80;;;3.90;99.90;;;;;;4974741;28;20197;-51
2022/12/05 11:41:24;;;;;;;35.00;15.73;;;4.00;99.90;;;;;;4973271;28;20624;-50
2022/12/05 11:44:10;;;;;;;36.70;16.00;;;4.00;99.90;;;;;;4976203;28;20193;-50
2022/12/05 11:46:50;;;;;;;38.27;16.53;;;4.00;99.90;;;;;;4980476;28;21828;-48
2022/12/05 11:49:36;;;;;;;39.40;16.77;;;4.00;99.90;;;;;;4973499;28;20251;-53
2022/12/05 11:52:11;;;;;;;33.37;16.33;;;4.00;99.90;;;;;;4976321;28;20220;-56
2022/12/05 11:55:02;;;;;;;35.67;16.73;;;4.00;99.90;;;;;;4986261;28;20224;-53
2022/12/05 11:57:44;;;;;;;35.37;14.73;;;4.00;99.90;;;;;;4986938;28;20195;-52
2022/12/05 12:00:20;;;;;;;33.37;15.83;;;4.00;99.90;;;;;;4961698;28;20216;-56
2022/12/05 12:03:14;;;;;;;27.87;14.57;;;4.00;99.90;;;;;;4983745;28;20208;-49
2022/12/05 12:05:48;;;;;;;28.03;14.40;;;4.00;99.90;;;;;;4987019;28;20280;-51
2022/12/05 12:08:21;;;;;;;30.50;14.80;;;3.90;99.90;;;;;;4969964;28;20907;-53
2022/12/05 12:11:01;;;;;;;34.27;16.17;;;4.00;99.90;;;;;;4988440;28;20233;-50
2022/12/05 12:13:45;;;;;;;28.87;15.30;;;4.00;99.90;;;;;;4991704;28;20218;-50
2022/12/05 12:16:19;;;;;;;31.10;14.97;;;4.00;99.90;;;;;;4960932;28;20212;-52
2022/12/05 12:18:58;;;;;;;34.10;16.27;;;3.90;99.90;;;;;;4981295;28;20217;-48
2022/12/05 12:21:37;;;;;;;28.83;14.70;;;3.90;99.90;;;;;;4984560;28;20193;-50
2022/12/05 12:24:12;;;;;;;29.10;14.70;;;3.90;99.90;;;;;;4972321;28;20302;-57
2022/12/05 12:26:48;;;;;;;35.50;17.20;;;3.90;99.90;;;;;;4973852;28;20284;-53
2022/12/05 12:29:25;;;;;;;32.30;14.80;;;3.90;99.90;;;;;;4988278;28;20229;-53
2022/12/05 12:32:08;;;;;;;24.47;13.67;;;3.90;99.90;;;;;;4954819;28;20217;-52
2022/12/05 12:35:03;;;;;;;25.47;13.53;;;3.90;99.90;;;;;;4972771;28;20608;-54
2022/12/05 12:37:40;;;;;;;30.47;13.60;;;3.90;99.90;;;;;;4986817;28;20205;-54
2022/12/05 12:40:14;;;;;;;23.57;13.90;;;3.90;99.90;;;;;;4973026;28;20233;-49
2022/12/05 12:42:54;;;;;;;25.40;13.40;;;3.90;99.90;;;;;;4986017;28;20282;-50
2022/12/05 12:45:39;;;;;;;29.30;14.57;;;3.90;99.90;;;;;;4979246;28;20197;-49
2022/12/05 12:48:23;;;;;;;28.43;13.60;;;3.90;99.90;;;;;;4970397;28;20270;-52
2022/12/05 12:50:53;;;;;;;27.80;16.17;;;3.90;99.90;;;;;;4978226;28;20991;-48
2022/12/05 12:53:59;;;;;;;27.90;14.57;;;3.90;99.90;;;;;;4977692;28;20249;-50
2022/12/05 12:56:37;;;;;;;29.13;14.13;;;3.90;99.90;;;;;;4978443;28;20216;-53
2022/12/05 12:59:32;;;;;;;27.93;13.00;;;3.90;99.90;;;;;;4984573;28;20228;-53
2022/12/05 13:02:10;;;;;;;25.70;13.20;;;3.90;99.90;;;;;;4977400;28;20216;-48
2022/12/05 13:04:43;;;;;;;28.23;14.47;;;3.90;99.90;;;;;;4962890;28;20697;-53
2022/12/05 13:07:15;;;;;;;32.03;15.17;;;3.80;99.90;;;;;;4981429;28;20276;-52
2022/12/05 13:09:46;;;;;;;26.97;14.67;;;3.80;99.90;;;;;;4974569;28;20332;-53